createdAt,value
2023-01-05T00:00:56.761Z,0.00
2023-01-05T00:01:56.710Z,0.00
2023-01-05T00:02:56.646Z,0.00
2023-01-05T00:03:56.709Z,0.00
2023-01-05T00:04:56.620Z,0.00
2023-01-05T00:05:56.611Z,0.00
2023-01-05T00:06:56.603Z,0.00
2023-01-05T00:07:56.612Z,0.00
2023-01-05T00:08:56.575Z,0.00
2023-01-05T00:09:56.568Z,0.00
2023-01-05T00:10:56.556Z,0.00
2023-01-05T00:11:56.548Z,0.00
2023-01-05T00:12:56.534Z,0.00
2023-01-05T00:13:56.524Z,0.00
2023-01-05T00:14:56.510Z,0.00
2023-01-05T00:15:56.502Z,0.00
2023-01-05T00:16:56.543Z,0.00
2023-01-05T00:17:56.484Z,0.00
2023-01-05T00:18:56.469Z,0.00
2023-01-05T00:19:56.466Z,0.00
2023-01-05T00:20:56.448Z,0.00
2023-01-05T00:21:56.440Z,0.00
2023-01-05T00:22:56.429Z,0.00
2023-01-05T00:23:56.454Z,0.00
2023-01-05T00:24:56.400Z,0.00
2023-01-05T00:25:56.389Z,0.00
2023-01-05T00:26:56.381Z,0.00
2023-01-05T00:27:56.367Z,0.00
2023-01-05T00:28:56.383Z,0.00
2023-01-05T00:29:56.347Z,0.00
2023-01-05T00:30:56.338Z,0.00
2023-01-05T00:31:56.349Z,0.00
2023-01-05T00:32:56.312Z,0.00
2023-01-05T00:33:56.302Z,0.00
2023-01-05T00:34:56.288Z,0.00
2023-01-05T00:35:56.280Z,0.00
2023-01-05T00:36:56.272Z,0.00
2023-01-05T00:37:56.263Z,0.00
2023-01-05T00:38:56.245Z,0.00
2023-01-05T00:39:56.361Z,0.00
2023-01-05T00:40:56.224Z,0.00
2023-01-05T00:41:56.213Z,0.00
2023-01-05T00:42:56.208Z,0.00
2023-01-05T00:43:56.190Z,0.00
2023-01-05T00:44:56.183Z,0.00
2023-01-05T00:45:56.233Z,0.00
2023-01-05T00:46:56.156Z,0.00
2023-01-05T00:47:56.170Z,0.00
2023-01-05T00:48:56.136Z,0.00
2023-01-05T00:49:56.126Z,0.00
2023-01-05T00:50:56.118Z,0.00
2023-01-05T00:51:56.103Z,0.00
2023-01-05T00:52:56.089Z,0.00
2023-01-05T00:53:56.083Z,0.00
2023-01-05T00:54:56.070Z,0.00
2023-01-05T00:55:56.086Z,0.00
2023-01-05T00:56:56.044Z,0.00
2023-01-05T00:57:56.037Z,0.00
2023-01-05T00:58:56.029Z,0.00
2023-01-05T00:59:56.038Z,0.00
2023-01-05T01:00:56.035Z,0.00
2023-01-05T01:01:56.099Z,0.00
2023-01-05T01:02:56.063Z,0.00
2023-01-05T01:03:55.969Z,0.00
2023-01-05T01:04:55.954Z,0.00
2023-01-05T01:05:55.948Z,0.00
2023-01-05T01:06:55.943Z,0.00
2023-01-05T01:07:55.924Z,0.00
2023-01-05T01:08:55.912Z,0.00
2023-01-05T01:09:55.904Z,0.00
2023-01-05T01:10:55.891Z,0.00
2023-01-05T01:11:55.901Z,0.00
2023-01-05T01:12:55.868Z,0.00
2023-01-05T01:13:55.859Z,0.00
2023-01-05T01:14:55.847Z,0.00
2023-01-05T01:15:55.831Z,0.00
2023-01-05T01:16:55.870Z,0.00
2023-01-05T01:17:55.816Z,0.00
2023-01-05T01:18:55.810Z,0.00
2023-01-05T01:19:55.803Z,0.00
2023-01-05T01:20:55.779Z,0.00
2023-01-05T01:21:55.769Z,0.00
2023-01-05T01:22:55.763Z,0.00
2023-01-05T01:23:55.749Z,0.00
2023-01-05T01:24:55.737Z,0.00
2023-01-05T01:25:55.723Z,0.00
2023-01-05T01:26:55.716Z,0.00
2023-01-05T01:27:55.722Z,0.00
2023-01-05T01:28:55.699Z,0.00
2023-01-05T01:29:55.677Z,0.00
2023-01-05T01:30:55.773Z,0.00
2023-01-05T01:31:55.664Z,0.00
2023-01-05T01:32:55.647Z,0.00
2023-01-05T01:33:55.637Z,0.00
2023-01-05T01:34:55.626Z,0.00
2023-01-05T01:35:55.616Z,0.00
2023-01-05T01:36:55.612Z,0.00
2023-01-05T01:37:55.588Z,0.00
2023-01-05T01:38:55.585Z,0.00
2023-01-05T01:39:55.582Z,0.00
2023-01-05T01:40:55.565Z,0.00
2023-01-05T01:41:55.548Z,0.00
2023-01-05T01:42:55.537Z,0.00
2023-01-05T01:43:55.579Z,0.00
2023-01-05T01:44:55.510Z,0.00
2023-01-05T01:45:55.522Z,0.00
2023-01-05T01:46:55.489Z,0.00
2023-01-05T01:47:55.481Z,0.00
2023-01-05T01:48:55.475Z,0.00
2023-01-05T01:49:55.458Z,0.00
2023-01-05T01:50:55.455Z,0.00
2023-01-05T01:51:55.430Z,0.00
2023-01-05T01:52:55.434Z,0.00
2023-01-05T01:53:55.409Z,0.00
2023-01-05T01:54:55.400Z,0.00
2023-01-05T01:55:55.389Z,0.00
2023-01-05T01:56:55.382Z,0.00
2023-01-05T01:57:55.366Z,0.00
2023-01-05T01:58:55.359Z,0.00
2023-01-05T01:59:55.365Z,0.00
2023-01-05T02:00:55.360Z,0.00
2023-01-05T02:01:55.449Z,0.00
2023-01-05T02:02:55.311Z,0.00
2023-01-05T02:03:55.300Z,0.00
2023-01-05T02:04:55.367Z,0.00
2023-01-05T02:05:55.276Z,0.00
2023-01-05T02:06:55.268Z,0.00
2023-01-05T02:07:55.255Z,0.00
2023-01-05T02:08:55.260Z,0.00
2023-01-05T02:09:55.233Z,0.00
2023-01-05T02:10:55.227Z,0.00
2023-01-05T02:11:55.210Z,0.00
2023-01-05T02:12:55.202Z,0.00
2023-01-05T02:13:55.191Z,0.00
2023-01-05T02:14:55.187Z,0.00
2023-01-05T02:15:55.186Z,0.00
2023-01-05T02:16:55.185Z,0.00
2023-01-05T02:17:55.144Z,0.00
2023-01-05T02:18:55.135Z,0.00
2023-01-05T02:19:55.122Z,0.00
2023-01-05T02:20:55.110Z,0.00
2023-01-05T02:21:55.105Z,0.00
2023-01-05T02:22:55.092Z,0.00
2023-01-05T02:23:55.078Z,0.00
2023-01-05T02:24:55.067Z,0.00
2023-01-05T02:25:55.095Z,0.00
2023-01-05T02:26:55.047Z,0.00
2023-01-05T02:27:55.038Z,0.00
2023-01-05T02:28:55.023Z,0.00
2023-01-05T02:29:55.015Z,0.00
2023-01-05T02:30:55.054Z,0.00
2023-01-05T02:31:55.016Z,0.00
2023-01-05T02:32:55.008Z,0.00
2023-01-05T02:33:55.113Z,0.00
2023-01-05T02:34:54.957Z,0.00
2023-01-05T02:35:54.949Z,0.00
2023-01-05T02:36:54.935Z,0.00
2023-01-05T02:37:54.937Z,0.00
2023-01-05T02:38:54.912Z,0.00
2023-01-05T02:39:54.900Z,0.00
2023-01-05T02:40:54.890Z,0.00
2023-01-05T02:41:54.886Z,0.00
2023-01-05T02:42:54.868Z,0.00
2023-01-05T02:43:54.856Z,0.00
2023-01-05T02:44:54.847Z,0.00
2023-01-05T02:45:54.879Z,0.00
2023-01-05T02:46:54.824Z,0.00
2023-01-05T02:47:54.832Z,0.00
2023-01-05T02:48:54.803Z,0.00
2023-01-05T02:49:54.789Z,0.00
2023-01-05T02:50:54.784Z,0.00
2023-01-05T02:51:54.768Z,0.00
2023-01-05T02:52:54.767Z,0.00
2023-01-05T02:53:54.746Z,0.00
2023-01-05T02:54:54.735Z,0.00
2023-01-05T02:55:54.739Z,0.00
2023-01-05T02:56:54.711Z,0.00
2023-01-05T02:57:54.710Z,0.00
2023-01-05T02:58:54.694Z,0.00
2023-01-05T02:59:54.685Z,0.00
2023-01-05T03:00:54.679Z,0.00
2023-01-05T03:01:54.835Z,0.00
2023-01-05T03:02:54.935Z,0.00
2023-01-05T03:03:54.658Z,0.00
2023-01-05T03:04:54.626Z,0.00
2023-01-05T03:05:54.617Z,0.00
2023-01-05T03:06:54.603Z,0.00
2023-01-05T03:07:54.592Z,0.00
2023-01-05T03:08:54.579Z,0.00
2023-01-05T03:09:54.569Z,0.00
2023-01-05T03:10:54.556Z,0.00
2023-01-05T03:11:54.554Z,0.00
2023-01-05T03:12:54.541Z,0.00
2023-01-05T03:13:54.524Z,0.00
2023-01-05T03:14:54.518Z,0.00
2023-01-05T03:15:54.554Z,0.00
2023-01-05T03:16:54.495Z,0.00
2023-01-05T03:17:54.482Z,0.00
2023-01-05T03:18:54.468Z,0.00
2023-01-05T03:19:54.479Z,0.00
2023-01-05T03:20:54.451Z,0.00
2023-01-05T03:21:54.439Z,0.00
2023-01-05T03:22:54.437Z,0.00
2023-01-05T03:23:54.424Z,0.00
2023-01-05T03:24:54.405Z,0.00
2023-01-05T03:25:54.391Z,0.00
2023-01-05T03:26:54.380Z,0.00
2023-01-05T03:27:54.368Z,0.00
2023-01-05T03:28:54.358Z,0.00
2023-01-05T03:29:54.343Z,0.00
2023-01-05T03:30:54.412Z,0.00
2023-01-05T03:31:54.321Z,0.00
2023-01-05T03:32:54.314Z,0.00
2023-01-05T03:33:54.302Z,0.00
2023-01-05T03:34:54.296Z,0.00
2023-01-05T03:35:54.299Z,0.00
2023-01-05T03:36:54.288Z,0.00
2023-01-05T03:37:54.257Z,0.00
2023-01-05T03:38:54.242Z,0.00
2023-01-05T03:39:54.236Z,0.00
2023-01-05T03:40:54.228Z,0.00
2023-01-05T03:41:54.216Z,0.00
2023-01-05T03:42:54.202Z,0.00
2023-01-05T03:43:54.199Z,0.00
2023-01-05T03:44:54.180Z,0.00
2023-01-05T03:45:54.277Z,0.00
2023-01-05T03:46:54.165Z,0.00
2023-01-05T03:47:54.148Z,0.00
2023-01-05T03:48:54.137Z,0.00
2023-01-05T03:49:54.125Z,0.00
2023-01-05T03:50:54.115Z,0.00
2023-01-05T03:51:54.128Z,0.00
2023-01-05T03:52:54.095Z,0.00
2023-01-05T03:53:54.084Z,0.00
2023-01-05T03:54:54.080Z,0.00
2023-01-05T03:55:54.083Z,0.00
2023-01-05T03:56:54.464Z,0.00
2023-01-05T03:57:54.035Z,0.00
2023-01-05T03:58:54.028Z,0.00
2023-01-05T03:59:54.013Z,0.00
2023-01-05T04:00:54.004Z,0.00
2023-01-05T04:01:54.157Z,0.00
2023-01-05T04:02:54.118Z,0.00
2023-01-05T04:03:54.100Z,0.00
2023-01-05T04:04:54.001Z,0.00
2023-01-05T04:05:53.960Z,0.00
2023-01-05T04:06:53.946Z,0.00
2023-01-05T04:07:54.014Z,0.00
2023-01-05T04:08:53.922Z,0.00
2023-01-05T04:09:53.936Z,0.00
2023-01-05T04:10:53.895Z,0.00
2023-01-05T04:11:53.888Z,0.00
2023-01-05T04:12:53.872Z,0.00
2023-01-05T04:13:53.861Z,0.00
2023-01-05T04:14:53.857Z,0.00
2023-01-05T04:15:53.927Z,0.00
2023-01-05T04:16:53.856Z,0.00
2023-01-05T04:17:53.827Z,0.00
2023-01-05T04:18:53.819Z,0.00
2023-01-05T04:19:53.803Z,0.00
2023-01-05T04:20:53.782Z,0.00
2023-01-05T04:21:53.775Z,0.00
2023-01-05T04:22:53.763Z,0.00
2023-01-05T04:23:53.777Z,0.00
2023-01-05T04:24:53.742Z,0.00
2023-01-05T04:25:53.724Z,0.00
2023-01-05T04:26:53.722Z,0.00
2023-01-05T04:27:53.708Z,0.00
2023-01-05T04:28:53.702Z,0.00
2023-01-05T04:29:53.684Z,0.00
2023-01-05T04:30:53.728Z,0.00
2023-01-05T04:31:53.666Z,0.00
2023-01-05T04:32:53.659Z,0.00
2023-01-05T04:33:53.657Z,0.00
2023-01-05T04:34:53.648Z,0.00
2023-01-05T04:35:53.620Z,0.00
2023-01-05T04:36:53.627Z,0.00
2023-01-05T04:37:53.596Z,0.00
2023-01-05T04:38:53.587Z,0.00
2023-01-05T04:39:53.601Z,0.00
2023-01-05T04:40:53.567Z,0.00
2023-01-05T04:41:53.552Z,0.00
2023-01-05T04:42:53.543Z,0.00
2023-01-05T04:43:53.529Z,0.00
2023-01-05T04:44:53.519Z,0.00
2023-01-05T04:45:53.516Z,0.00
2023-01-05T04:46:53.623Z,0.00
2023-01-05T04:47:53.490Z,0.00
2023-01-05T04:48:53.479Z,0.00
2023-01-05T04:49:53.463Z,0.00
2023-01-05T04:50:53.463Z,0.00
2023-01-05T04:51:53.439Z,0.00
2023-01-05T04:52:53.433Z,0.00
2023-01-05T04:53:53.419Z,0.00
2023-01-05T04:54:53.409Z,0.00
2023-01-05T04:55:53.422Z,0.00
2023-01-05T04:56:53.398Z,0.00
2023-01-05T04:57:53.391Z,0.00
2023-01-05T04:58:53.368Z,0.00
2023-01-05T04:59:53.368Z,0.00
2023-01-05T05:00:53.346Z,0.00
2023-01-05T05:01:53.450Z,0.00
2023-01-05T05:02:53.462Z,0.00
2023-01-05T05:03:53.385Z,0.00
2023-01-05T05:04:53.303Z,0.00
2023-01-05T05:05:53.286Z,0.00
2023-01-05T05:06:53.278Z,0.00
2023-01-05T05:07:53.263Z,0.00
2023-01-05T05:08:53.283Z,0.00
2023-01-05T05:09:53.242Z,0.00
2023-01-05T05:10:53.240Z,0.00
2023-01-05T05:11:53.266Z,0.00
2023-01-05T05:12:53.217Z,0.00
2023-01-05T05:13:53.204Z,0.00
2023-01-05T05:14:53.200Z,0.00
2023-01-05T05:15:53.191Z,0.00
2023-01-05T05:16:53.185Z,0.00
2023-01-05T05:17:53.148Z,0.00
2023-01-05T05:18:53.145Z,0.00
2023-01-05T05:19:53.131Z,0.00
2023-01-05T05:20:53.121Z,0.00
2023-01-05T05:21:53.117Z,0.00
2023-01-05T05:22:53.099Z,0.00
2023-01-05T05:23:53.085Z,0.00
2023-01-05T05:24:53.079Z,0.00
2023-01-05T05:25:53.066Z,0.00
2023-01-05T05:26:53.052Z,0.00
2023-01-05T05:27:53.067Z,0.00
2023-01-05T05:28:53.027Z,0.00
2023-01-05T05:29:53.030Z,0.00
2023-01-05T05:30:53.074Z,0.00
2023-01-05T05:31:53.000Z,0.00
2023-01-05T05:32:52.992Z,0.00
2023-01-05T05:33:52.976Z,0.00
2023-01-05T05:34:52.963Z,0.00
2023-01-05T05:35:52.954Z,0.00
2023-01-05T05:36:52.941Z,0.00
2023-01-05T05:37:56.666Z,0.00
2023-01-05T05:38:52.919Z,0.00
2023-01-05T05:39:52.909Z,0.00
2023-01-05T05:40:52.902Z,0.00
2023-01-05T05:41:52.886Z,0.00
2023-01-05T05:42:52.893Z,0.00
2023-01-05T05:43:52.891Z,0.00
2023-01-05T05:44:52.856Z,0.00
2023-01-05T05:45:52.845Z,0.00
2023-01-05T05:46:52.856Z,0.00
2023-01-05T05:47:52.826Z,0.00
2023-01-05T05:48:52.812Z,0.00
2023-01-05T05:49:52.799Z,0.00
2023-01-05T05:50:52.801Z,0.00
2023-01-05T05:51:52.776Z,0.00
2023-01-05T05:52:52.767Z,0.00
2023-01-05T05:53:52.754Z,0.00
2023-01-05T05:54:52.741Z,0.00
2023-01-05T05:55:52.735Z,0.00
2023-01-05T05:56:52.727Z,0.00
2023-01-05T05:57:52.709Z,0.00
2023-01-05T05:58:58.995Z,0.00
2023-01-05T05:59:52.712Z,0.00
2023-01-05T06:00:52.675Z,0.00
2023-01-05T06:01:52.898Z,0.00
2023-01-05T06:02:52.831Z,0.00
2023-01-05T06:03:52.695Z,0.00
2023-01-05T06:04:52.637Z,0.00
2023-01-05T06:05:52.622Z,0.00
2023-01-05T06:06:52.607Z,0.00
2023-01-05T06:07:52.599Z,0.00
2023-01-05T06:08:52.593Z,0.00
2023-01-05T06:09:52.577Z,0.00
2023-01-05T06:10:52.566Z,0.00
2023-01-05T06:11:52.554Z,0.00
2023-01-05T06:12:52.540Z,0.00
2023-01-05T06:13:52.531Z,0.00
2023-01-05T06:14:52.520Z,0.00
2023-01-05T06:15:52.631Z,0.00
2023-01-05T06:16:52.498Z,0.00
2023-01-05T06:17:52.492Z,0.00
2023-01-05T06:18:52.475Z,0.00
2023-01-05T06:19:52.462Z,0.00
2023-01-05T06:20:57.825Z,0.00
2023-01-05T06:21:53.467Z,0.00
2023-01-05T06:22:52.427Z,0.00
2023-01-05T06:23:52.420Z,0.00
2023-01-05T06:24:52.406Z,0.00
2023-01-05T06:25:52.400Z,0.00
2023-01-05T06:26:52.386Z,0.00
2023-01-05T06:27:52.378Z,0.00
2023-01-05T06:28:52.363Z,0.00
2023-01-05T06:29:52.351Z,0.00
2023-01-05T06:30:52.349Z,0.00
2023-01-05T06:31:52.401Z,0.00
2023-01-05T06:32:52.315Z,0.00
2023-01-05T06:33:52.314Z,0.00
2023-01-05T06:34:52.303Z,0.00
2023-01-05T06:35:52.283Z,0.00
2023-01-05T06:36:52.272Z,0.00
2023-01-05T06:37:52.270Z,0.00
2023-01-05T06:38:52.256Z,0.00
2023-01-05T06:39:52.241Z,0.00
2023-01-05T06:40:52.227Z,5.22
2023-01-05T06:41:52.217Z,1.02
2023-01-05T06:42:52.213Z,0.00
2023-01-05T06:43:52.194Z,1.53
2023-01-05T06:44:52.181Z,0.92
2023-01-05T06:45:52.217Z,0.00
2023-01-05T06:46:52.160Z,3.48
2023-01-05T06:47:52.174Z,0.00
2023-01-05T06:48:52.184Z,0.82
2023-01-05T06:49:52.137Z,0.00
2023-01-05T06:50:52.120Z,2.76
2023-01-05T06:51:52.106Z,3.38
2023-01-05T06:52:52.098Z,2.97
2023-01-05T06:53:52.093Z,8.40
2023-01-05T06:54:52.069Z,6.45
2023-01-05T06:55:52.087Z,7.89
2023-01-05T06:56:52.055Z,9.01
2023-01-05T06:57:57.103Z,8.40
2023-01-05T06:58:52.025Z,13.01
2023-01-05T06:59:52.018Z,12.40
2023-01-05T07:00:52.037Z,11.07
2023-01-05T07:01:52.137Z,9.84
2023-01-05T07:02:51.984Z,8.40
2023-01-05T07:03:52.025Z,9.22
2023-01-05T07:04:51.959Z,10.14
2023-01-05T07:05:51.950Z,10.97
2023-01-05T07:06:51.937Z,11.79
2023-01-05T07:07:51.929Z,11.79
2023-01-05T07:08:51.926Z,13.32
2023-01-05T07:09:51.915Z,10.46
2023-01-05T07:10:51.890Z,11.58
2023-01-05T07:11:51.885Z,8.20
2023-01-05T07:12:51.892Z,4.61
2023-01-05T07:13:51.865Z,2.05
2023-01-05T07:14:57.321Z,0.10
2023-01-05T07:15:51.838Z,0.00
2023-01-05T07:16:51.887Z,0.00
2023-01-05T07:17:51.820Z,0.00
2023-01-05T07:18:51.811Z,0.00
2023-01-05T07:19:51.814Z,0.00
2023-01-05T07:20:51.778Z,0.00
2023-01-05T07:21:56.587Z,0.00
2023-01-05T07:22:51.759Z,0.00
2023-01-05T07:23:51.752Z,0.00
2023-01-05T07:24:51.748Z,0.00
2023-01-05T07:25:51.730Z,0.00
2023-01-05T07:26:51.716Z,0.00
2023-01-05T07:27:51.705Z,0.00
2023-01-05T07:28:51.695Z,0.00
2023-01-05T07:29:51.739Z,0.00
2023-01-05T07:30:51.676Z,0.00
2023-01-05T07:31:51.716Z,0.00
2023-01-05T07:32:51.713Z,0.00
2023-01-05T07:33:51.643Z,0.00
2023-01-05T07:34:55.657Z,0.00
2023-01-05T07:35:51.641Z,0.00
2023-01-05T07:36:51.603Z,0.00
2023-01-05T07:37:51.607Z,0.00
2023-01-05T07:38:51.580Z,0.00
2023-01-05T07:39:51.572Z,0.00
2023-01-05T07:40:51.564Z,0.00
2023-01-05T07:41:51.552Z,0.00
2023-01-05T07:42:51.552Z,0.00
2023-01-05T07:43:51.528Z,0.00
2023-01-05T07:44:51.514Z,0.00
2023-01-05T07:45:51.584Z,0.00
2023-01-05T07:46:51.499Z,0.00
2023-01-05T07:47:51.483Z,0.00
2023-01-05T07:48:51.483Z,0.00
2023-01-05T07:49:51.461Z,0.71
2023-01-05T07:50:51.447Z,1.74
2023-01-05T07:51:51.516Z,1.54
2023-01-05T07:52:51.426Z,5.02
2023-01-05T07:53:51.418Z,5.23
2023-01-05T07:54:51.407Z,3.49
2023-01-05T07:55:51.399Z,3.39
2023-01-05T07:56:51.386Z,3.90
2023-01-05T07:57:51.382Z,0.00
2023-01-05T07:58:51.363Z,0.31
2023-01-05T07:59:51.353Z,0.00
2023-01-05T08:00:51.430Z,1.23
2023-01-05T08:01:51.493Z,0.00
2023-01-05T08:02:51.321Z,0.00
2023-01-05T08:03:51.418Z,0.00
2023-01-05T08:04:51.299Z,0.00
2023-01-05T08:05:51.285Z,0.00
2023-01-05T08:06:51.273Z,0.00
2023-01-05T08:07:51.286Z,0.00
2023-01-05T08:08:51.249Z,0.00
2023-01-05T08:09:51.262Z,0.00
2023-01-05T08:10:51.228Z,0.00
2023-01-05T08:11:51.221Z,0.00
2023-01-05T08:12:51.210Z,0.00
2023-01-05T08:13:51.198Z,0.00
2023-01-05T08:14:51.183Z,0.00
2023-01-05T08:15:51.737Z,0.00
2023-01-05T08:16:51.216Z,0.00
2023-01-05T08:17:51.153Z,0.00
2023-01-05T08:18:51.149Z,0.00
2023-01-05T08:19:51.137Z,0.00
2023-01-05T08:20:51.123Z,0.00
2023-01-05T08:21:51.115Z,0.00
2023-01-05T08:22:51.098Z,0.00
2023-01-05T08:23:51.116Z,0.00
2023-01-05T08:24:51.077Z,0.00
2023-01-05T08:25:51.069Z,0.00
2023-01-05T08:26:51.199Z,1.13
2023-01-05T08:27:51.043Z,0.00
2023-01-05T08:28:51.044Z,0.00
2023-01-05T08:29:51.030Z,0.00
2023-01-05T08:30:51.017Z,0.00
2023-01-05T08:31:51.094Z,0.00
2023-01-05T08:32:50.991Z,0.00
2023-01-05T08:33:50.982Z,0.61
2023-01-05T08:34:55.421Z,2.05
2023-01-05T08:35:50.966Z,0.00
2023-01-05T08:36:50.954Z,0.92
2023-01-05T08:37:50.937Z,4.93
2023-01-05T08:38:50.939Z,7.50
2023-01-05T08:39:50.960Z,7.60
2023-01-05T08:40:50.903Z,6.16
2023-01-05T08:41:50.898Z,3.49
2023-01-05T08:42:50.883Z,6.06
2023-01-05T08:43:50.891Z,8.63
2023-01-05T08:44:50.867Z,12.22
2023-01-05T08:45:50.896Z,10.78
2023-01-05T08:46:50.841Z,12.53
2023-01-05T08:47:50.828Z,12.53
2023-01-05T08:48:50.817Z,14.17
2023-01-05T08:49:50.846Z,12.73
2023-01-05T08:50:50.794Z,11.91
2023-01-05T08:51:50.783Z,12.12
2023-01-05T08:52:50.778Z,15.61
2023-01-05T08:53:50.761Z,14.48
2023-01-05T08:54:50.757Z,15.71
2023-01-05T08:55:50.771Z,14.79
2023-01-05T08:56:50.800Z,16.53
2023-01-05T08:57:50.719Z,16.02
2023-01-05T08:58:50.707Z,15.81
2023-01-05T08:59:50.695Z,15.61
2023-01-05T09:00:50.751Z,16.33
2023-01-05T09:01:50.782Z,17.25
2023-01-05T09:02:50.796Z,17.56
2023-01-05T09:03:50.655Z,17.46
2023-01-05T09:04:50.637Z,17.56
2023-01-05T09:05:50.634Z,16.84
2023-01-05T09:06:50.620Z,21.76
2023-01-05T09:07:50.616Z,22.07
2023-01-05T09:08:50.622Z,21.86
2023-01-05T09:09:50.588Z,22.79
2023-01-05T09:10:50.577Z,20.43
2023-01-05T09:11:50.587Z,21.86
2023-01-05T09:12:50.554Z,24.02
2023-01-05T09:13:50.560Z,22.28
2023-01-05T09:14:50.535Z,24.54
2023-01-05T09:15:50.521Z,24.95
2023-01-05T09:17:06.851Z,25.15
2023-01-05T09:17:51.563Z,25.25
2023-01-05T09:18:50.485Z,25.46
2023-01-05T09:19:50.492Z,27.31
2023-01-05T09:20:50.467Z,23.71
2023-01-05T09:21:50.454Z,21.56
2023-01-05T09:22:50.443Z,22.48
2023-01-05T09:23:50.436Z,22.69
2023-01-05T09:24:50.419Z,23.30
2023-01-05T09:25:50.411Z,21.97
2023-01-05T09:26:50.400Z,20.43
2023-01-05T09:27:50.421Z,21.35
2023-01-05T09:28:50.390Z,21.04
2023-01-05T09:29:50.366Z,21.76
2023-01-05T09:30:51.247Z,22.89
2023-01-05T09:31:50.360Z,24.12
2023-01-05T09:32:50.334Z,23.41
2023-01-05T09:33:50.323Z,23.71
2023-01-05T09:34:50.310Z,28.22
2023-01-05T09:35:50.301Z,29.86
2023-01-05T09:36:50.310Z,27.81
2023-01-05T09:37:50.284Z,27.61
2023-01-05T09:38:50.280Z,26.69
2023-01-05T09:39:50.255Z,26.79
2023-01-05T09:40:50.242Z,26.48
2023-01-05T09:41:50.254Z,26.18
2023-01-05T09:42:50.222Z,25.05
2023-01-05T09:43:50.327Z,26.38
2023-01-05T09:44:55.425Z,28.63
2023-01-05T09:45:50.224Z,30.77
2023-01-05T09:46:50.182Z,34.14
2023-01-05T09:47:50.196Z,44.14
2023-01-05T09:48:50.177Z,52.59
2023-01-05T09:49:50.149Z,61.65
2023-01-05T09:50:50.145Z,64.24
2023-01-05T09:51:50.123Z,72.41
2023-01-05T09:52:50.114Z,71.91
2023-01-05T09:53:50.097Z,73.64
2023-01-05T09:54:50.099Z,75.65
2023-01-05T09:55:50.076Z,77.34
2023-01-05T09:57:19.815Z,77.04
2023-01-05T09:57:51.123Z,78.41
2023-01-05T09:58:50.048Z,77.25
2023-01-05T09:59:50.149Z,80.07
2023-01-05T10:00:50.035Z,82.98
2023-01-05T10:01:50.089Z,84.82
2023-01-05T10:02:50.001Z,80.40
2023-01-05T10:04:05.685Z,86.27
2023-01-05T10:04:51.219Z,86.27
2023-01-05T10:05:49.998Z,87.14
2023-01-05T10:06:49.984Z,87.79
2023-01-05T10:07:49.957Z,86.98
2023-01-05T10:08:50.023Z,88.57
2023-01-05T10:09:49.973Z,90.66
2023-01-05T10:10:49.917Z,91.60
2023-01-05T10:11:49.918Z,92.00
2023-01-05T10:12:49.912Z,90.97
2023-01-05T10:13:49.880Z,91.84
2023-01-05T10:14:49.885Z,91.58
2023-01-05T10:15:50.361Z,92.49
2023-01-05T10:16:53.926Z,92.29
2023-01-05T10:17:50.885Z,89.73
2023-01-05T10:18:49.825Z,90.55
2023-01-05T10:19:49.812Z,89.07
2023-01-05T10:20:49.802Z,89.57
2023-01-05T10:21:49.790Z,86.83
2023-01-05T10:22:49.783Z,80.62
2023-01-05T10:23:49.774Z,75.17
2023-01-05T10:24:49.766Z,72.04
2023-01-05T10:25:49.746Z,68.38
2023-01-05T10:27:23.666Z,66.24
2023-01-05T10:27:56.507Z,63.60
2023-01-05T10:28:50.745Z,62.88
2023-01-05T10:29:49.739Z,62.17
2023-01-05T10:30:49.733Z,64.01
2023-01-05T10:31:49.799Z,61.35
2023-01-05T10:32:50.845Z,60.74
2023-01-05T10:33:54.593Z,59.94
2023-01-05T10:34:50.695Z,57.38
2023-01-05T10:36:00.886Z,57.18
2023-01-05T10:37:08.033Z,56.67
2023-01-05T10:37:50.672Z,57.59
2023-01-05T10:38:49.624Z,57.38
2023-01-05T10:39:55.782Z,56.77
2023-01-05T10:40:50.616Z,55.54
2023-01-05T10:41:49.968Z,55.64
2023-01-05T10:42:49.562Z,55.85
2023-01-05T10:43:49.549Z,53.69
2023-01-05T10:44:49.541Z,55.23
2023-01-05T10:46:28.225Z,56.05
2023-01-05T10:46:52.613Z,55.54
2023-01-05T10:47:49.795Z,53.18
2023-01-05T10:48:49.494Z,55.13
2023-01-05T10:49:49.481Z,52.67
2023-01-05T10:50:49.474Z,53.18
2023-01-05T10:51:56.083Z,53.90
2023-01-05T10:52:50.481Z,52.97
2023-01-05T10:53:49.439Z,50.82
2023-01-05T10:54:49.448Z,53.39
2023-01-05T10:55:49.416Z,51.95
2023-01-05T10:56:49.414Z,52.26
2023-01-05T10:57:49.398Z,51.95
2023-01-05T10:58:49.383Z,50.62
2023-01-05T10:59:49.409Z,53.80
2023-01-05T11:00:49.377Z,53.18
2023-01-05T11:01:49.475Z,54.61
2023-01-05T11:02:49.411Z,50.21
2023-01-05T11:04:50.397Z,51.85
2023-01-05T11:05:49.302Z,51.85
2023-01-05T11:06:49.292Z,50.72
2023-01-05T11:07:49.282Z,51.44
2023-01-05T11:08:49.280Z,52.67
2023-01-05T11:09:49.284Z,51.13
2023-01-05T11:10:49.276Z,53.69
2023-01-05T11:11:49.241Z,56.46
2023-01-05T11:12:49.229Z,54.31
2023-01-05T11:13:49.215Z,57.48
2023-01-05T11:14:52.033Z,54.72
2023-01-05T11:15:49.266Z,54.92
2023-01-05T11:16:49.187Z,55.02
2023-01-05T11:17:49.170Z,55.23
2023-01-05T11:18:49.161Z,56.15
2023-01-05T11:19:49.266Z,55.43
2023-01-05T11:20:49.139Z,55.43
2023-01-05T11:21:49.131Z,57.48
2023-01-05T11:22:49.118Z,56.56
2023-01-05T11:23:49.105Z,57.48
2023-01-05T11:24:49.093Z,56.43
2023-01-05T11:25:49.082Z,58.40
2023-01-05T11:26:49.075Z,60.42
2023-01-05T11:27:57.149Z,59.81
2023-01-05T11:28:50.079Z,60.74
2023-01-05T11:29:49.041Z,60.63
2023-01-05T11:30:49.079Z,60.84
2023-01-05T11:31:49.042Z,59.20
2023-01-05T11:32:49.033Z,60.63
2023-01-05T11:33:49.001Z,58.69
2023-01-05T11:34:48.987Z,58.48
2023-01-05T11:35:49.094Z,60.53
2023-01-05T11:36:48.962Z,58.97
2023-01-05T11:37:48.951Z,58.35
2023-01-05T11:38:48.947Z,60.40
2023-01-05T11:39:48.928Z,56.82
2023-01-05T11:40:48.916Z,57.94
2023-01-05T11:41:48.907Z,59.07
2023-01-05T11:42:48.894Z,56.92
2023-01-05T11:43:48.880Z,58.15
2023-01-05T11:44:48.898Z,59.68
2023-01-05T11:45:48.861Z,64.29
2023-01-05T11:46:48.934Z,61.93
2023-01-05T11:47:48.842Z,63.57
2023-01-05T11:48:48.832Z,61.22
2023-01-05T11:49:52.541Z,61.93
2023-01-05T11:50:49.836Z,61.83
2023-01-05T11:51:48.913Z,62.85
2023-01-05T11:52:48.788Z,65.01
2023-01-05T11:53:48.770Z,64.39
2023-01-05T11:54:48.764Z,65.11
2023-01-05T11:55:48.770Z,63.75
2023-01-05T11:56:48.772Z,64.06
2023-01-05T11:57:51.599Z,67.54
2023-01-05T11:58:49.747Z,66.10
2023-01-05T11:59:48.705Z,63.95
2023-01-05T12:00:48.782Z,66.72
2023-01-05T12:01:48.766Z,64.23
2023-01-05T12:02:48.748Z,66.48
2023-01-05T12:03:51.715Z,67.30
2023-01-05T12:04:48.653Z,67.30
2023-01-05T12:05:48.644Z,68.01
2023-01-05T12:06:48.629Z,67.37
2023-01-05T12:07:48.741Z,68.39
2023-01-05T12:08:48.652Z,68.49
2023-01-05T12:09:48.594Z,66.04
2023-01-05T12:10:48.603Z,69.48
2023-01-05T12:11:48.590Z,69.59
2023-01-05T12:12:48.566Z,71.83
2023-01-05T12:13:48.575Z,70.00
2023-01-05T12:14:48.539Z,72.45
2023-01-05T12:15:48.588Z,73.36
2023-01-05T12:16:48.570Z,73.68
2023-01-05T12:17:48.537Z,71.12
2023-01-05T12:18:48.544Z,71.53
2023-01-05T12:19:48.524Z,71.09
2023-01-05T12:20:48.532Z,74.66
2023-01-05T12:21:48.480Z,74.39
2023-01-05T12:22:48.474Z,73.98
2023-01-05T12:23:48.596Z,73.27
2023-01-05T12:24:48.435Z,74.80
2023-01-05T12:25:48.421Z,72.04
2023-01-05T12:26:48.417Z,74.80
2023-01-05T12:27:48.432Z,70.10
2023-01-05T12:28:57.933Z,72.04
2023-01-05T12:31:29.434Z,72.75
2023-01-05T12:34:01.300Z,70.43
2023-01-05T12:34:11.178Z,72.11
2023-01-05T12:34:49.350Z,71.08
2023-01-05T12:35:48.318Z,72.31
2023-01-05T12:36:48.302Z,70.78
2023-01-05T12:37:48.290Z,69.27
2023-01-05T12:38:48.294Z,68.73
2023-01-05T12:39:48.399Z,69.07
2023-01-05T12:40:48.258Z,66.28
2023-01-05T12:41:48.246Z,65.28
2023-01-05T12:42:48.236Z,65.69
2023-01-05T12:43:48.245Z,67.13
2023-01-05T12:44:48.224Z,69.79
2023-01-05T12:45:48.208Z,69.48
2023-01-05T12:46:48.238Z,70.40
2023-01-05T12:47:48.182Z,71.22
2023-01-05T12:48:48.170Z,71.83
2023-01-05T12:49:48.162Z,72.14
2023-01-05T12:50:48.146Z,67.91
2023-01-05T12:51:48.135Z,72.00
2023-01-05T12:52:48.124Z,72.31
2023-01-05T12:53:48.111Z,71.59
2023-01-05T12:54:48.106Z,73.13
2023-01-05T12:55:48.208Z,73.54
2023-01-05T12:56:48.089Z,75.65
2023-01-05T12:57:48.071Z,74.73
2023-01-05T12:58:53.786Z,77.59
2023-01-05T12:59:48.046Z,76.67
2023-01-05T13:00:48.052Z,76.16
2023-01-05T13:01:48.101Z,77.70
2023-01-05T13:02:48.088Z,76.88
2023-01-05T13:03:48.001Z,77.49
2023-01-05T13:04:52.738Z,75.65
2023-01-05T13:05:48.031Z,76.57
2023-01-05T13:06:48.118Z,77.59
2023-01-05T13:07:47.955Z,78.31
2023-01-05T13:08:47.948Z,78.00
2023-01-05T13:09:47.935Z,75.65
2023-01-05T13:10:48.074Z,76.57
2023-01-05T13:11:48.232Z,78.00
2023-01-05T13:12:47.908Z,75.45